Sakata Shonai Airport

About
Name: Sakata Shonai Airport
Identifier:  SYO/RJSY
Serves:  Sakata, Yamagata
Public/Private:  Public
Local Time:  21. Sep 17:47 JST
Description: Shonai Airport is a regional airport in Sakata, Yamagata, Japan. The municipalities of Tsuruoka and Sh┼Źnai are also near the airport.
Source: Wikipedia
Location
Sakata
  Japan

Runways
Identifier Length (m/ft) Surface
09/27 2,000/6,562 Asphalt concrete
Statistics
Flights per Day:
8 flights
Distance: 358km (222mi)
Flights delayed:
88% (1 flights per day delayed)
Delay Average: 2 minutes
Current Weather
 21 C (Humidity: 64%)
  0kt from variable
  Few clouds at 2,000 feet (609 meter)
  Broken clouds at 16,000 feet (4,876 meter)
  9km (6 mi.)
 METAR RJSY 210800Z VRB02KT 9999 FEW020 BKN160 21/14 Q1020

Current Flights

Arrivals
Number Arrival From Airline
Landed NH395 12:10  Tokyo  All Nippon Airways
Landed GK777 14:05  Tokyo  Jetstar Japan
Landed NH397 16:55  Tokyo  All Nippon Airways

Current Delays

Departures
N/A
Arrivals
N/A

Destinations

Top Destinations
Airport Flights
per week
Seats
per week
  Tokyo (HND) 50 7,157 7 1022
  Tokyo (NRT) 13 1,932 1 276

Airlines & Planes

Top Airlines
Airline Flights
per Day
Seats
per Day
  All Nippon Airways 7 1,022
  Jetstar Japan 1 276
Top Plane Types
Model Flights Seats
Airbus A321 2.8/day 291/day 291
Boeing B767-300 2.8/day 687/day 687.2666666666667
Airbus A320 1.9/day 276/day 276
Airbus A321 Neo 1.3/day - 0
Boeing B737-800 0.3/day 44/day 44.266666666666666